This is the latest recevied weather packets stored in our database for station/object N3SBK. If no packets are shown the sender has not sent any weather packets the latest 10 day(s).
| Time | Temp. | Humidity | Pressure | Rain* | Wind** | Luminosity | Snow |
|---|---|---|---|---|---|---|---|
| 1787776244 | 28.33° C | 51% | 1008 hPa | 0 mm | - | 399 W/m² | - |
| 1787775943 | 28.33° C | 52% | 1008 hPa | 0 mm | - | 404 W/m² | - |
| 1787775638 | 28.89° C | 52% | 1007.9 hPa | 0 mm | - | 82 W/m² | - |
| 1787775336 | 28.89° C | 53% | 1007.8 hPa | 0 mm | - | 435 W/m² | - |
| 1787775031 | 28.33° C | 51% | 1007.9 hPa | 0 mm | - | 452 W/m² | - |
| 1787774730 | 28.33° C | 51% | 1008.1 hPa | 0 mm | - | 463 W/m² | - |
| 1787774425 | 28.89° C | 49% | 1007.9 hPa | 0 mm | - | 551 W/m² | - |
| 1787774120 | 28.89° C | 49% | 1008 hPa | 0 mm | - | 551 W/m² | - |
| 1787773818 | 28.89° C | 51% | 1008.1 hPa | 0 mm | - | 575 W/m² | - |
| 1787773517 | 28.33° C | 54% | 1008 hPa | 0 mm | - | 559 W/m² | - |
| 1787773213 | 28.89° C | 49% | 1008.1 hPa | 0 mm | - | 369 W/m² | - |
| 1787772909 | 29.44° C | 50% | 1008.1 hPa | 0 mm | - | 273 W/m² | - |
| 1787772604 | 27.22° C | 49% | 1008 hPa | 0 mm | - | 623 W/m² | - |
| 1787772303 | 27.22° C | 49% | 1008.2 hPa | 0 mm | - | 623 W/m² | - |
| 1787772001 | 27.22° C | 49% | 1008.3 hPa | 0 mm | - | 623 W/m² | - |
| 1787771696 | 28.33° C | 49% | 1008.3 hPa | 0 mm | - | 412 W/m² | - |
| 1787771395 | 28.33° C | 49% | 1008.1 hPa | 0 mm | - | 412 W/m² | - |
| 1787771094 | 28.33° C | 48% | 1008.2 hPa | 0 mm | - | 423 W/m² | - |
| 1787770789 | 27.78° C | 52% | 1008.5 hPa | 0 mm | - | 620 W/m² | - |
| 1787770489 | 28.33° C | 49% | 1008.4 hPa | 0 mm | - | 485 W/m² | - |
| 1787770188 | 27.78° C | 52% | 1008.5 hPa | 0 mm | - | 574 W/m² | - |
| 1787769887 | 27.22° C | 51% | 1008.7 hPa | 0 mm | - | 627 W/m² | - |
| 1787769582 | 27.22° C | 54% | 1008.6 hPa | 0 mm | - | 637 W/m² | - |
| 1787769280 | 25.56° C | 64% | 1008.8 hPa | 0 mm | - | 524 W/m² | - |
| 1787768976 | 25.56° C | 64% | 1008.7 hPa | 0 mm | - | 524 W/m² | - |
* Rain latest hour (hover to see other rain measurements)
** Current wind speed in m/s (hover to see current wind gust speed)